Time;durP1;ratioP1;P1;durP2;ratioP2;P2;SDS_P1;SDS_P2;PMS_P1;PMS_P2;Temp;Humidity;BMP_temperature;BMP_pressure;BME280_temperature;BME280_humidity;BME280_pressure;Samples;Min_cycle;Max_cycle;Signal;HPM_P1;HPM_P2
2022/01/28 00:02:10;;;;;;;37.42;3.53;;;;;;;;;;4961345;28;20035;-65
2022/01/28 00:04:36;;;;;;;32.00;4.03;;;;;;;;;;4954840;28;20615;-65
2022/01/28 00:07:02;;;;;;;19.42;2.53;;;;;;;;;;4962056;28;20054;-65
2022/01/28 00:09:28;;;;;;;29.27;3.78;;;;;;;;;;4961913;28;20030;-65
2022/01/28 00:11:54;;;;;;;19.27;3.20;;;;;;;;;;4954805;28;20543;-66
2022/01/28 00:14:27;;;;;;;22.15;2.90;;;;;;;;;;4955718;28;20114;-66
2022/01/28 00:17:25;;;;;;;28.95;3.15;;;;;;;;;;4954070;28;20038;-65
2022/01/28 00:38:55;;;;;;;30.15;3.67;;;;;;;;;;4963432;28;20032;-66
2022/01/28 00:41:21;;;;;;;23.30;3.55;;;;;;;;;;4964393;28;20062;-66
2022/01/28 00:43:47;;;;;;;32.80;3.75;;;;;;;;;;4967587;28;20046;-66
2022/01/28 00:46:14;;;;;;;24.15;2.60;;;;;;;;;;4955546;28;20039;-67
2022/01/28 00:48:40;;;;;;;24.15;3.80;;;;;;;;;;4960206;28;20460;-66
2022/01/28 00:51:06;;;;;;;18.40;2.72;;;;;;;;;;4958564;28;20042;-66
2022/01/28 00:53:32;;;;;;;20.95;2.90;;;;;;;;;;4959923;28;20097;-66
2022/01/28 00:55:58;;;;;;;20.15;2.60;;;;;;;;;;4966088;28;20588;-66
2022/01/28 00:58:25;;;;;;;27.67;3.58;;;;;;;;;;4960705;28;20065;-66
2022/01/28 01:00:51;;;;;;;19.92;4.03;;;;;;;;;;4959305;28;20035;-66
2022/01/28 01:03:17;;;;;;;25.98;3.30;;;;;;;;;;4957830;28;20039;-66
2022/01/28 01:05:44;;;;;;;32.40;3.03;;;;;;;;;;4974104;28;20106;-66
2022/01/28 01:08:10;;;;;;;29.15;4.30;;;;;;;;;;4965179;28;20039;-67
2022/01/28 01:10:37;;;;;;;21.38;2.85;;;;;;;;;;4959239;28;20086;-67
2022/01/28 01:13:03;;;;;;;25.70;3.25;;;;;;;;;;4965255;28;20027;-66
2022/01/28 01:15:35;;;;;;;24.08;3.55;;;;;;;;;;4958269;28;20608;-66
2022/01/28 01:18:12;;;;;;;31.27;3.85;;;;;;;;;;4963485;28;20244;-66
2022/01/28 01:23:14;;;;;;;26.58;3.78;;;;;;;;;;4958913;28;20065;-66
2022/01/28 01:25:52;;;;;;;21.20;3.50;;;;;;;;;;4961361;28;20031;-66
2022/01/28 01:28:21;;;;;;;24.38;3.38;;;;;;;;;;4956342;28;20044;-66
2022/01/28 01:30:47;;;;;;;20.20;2.85;;;;;;;;;;4959734;28;20045;-67
2022/01/28 01:33:15;;;;;;;23.45;2.85;;;;;;;;;;4962891;28;20497;-67
2022/01/28 01:35:41;;;;;;;19.70;2.90;;;;;;;;;;4976719;28;20113;-67
2022/01/28 01:38:09;;;;;;;25.95;4.28;;;;;;;;;;4963878;28;20027;-66
2022/01/28 01:40:44;;;;;;;50.40;4.30;;;;;;;;;;4959461;28;21243;-66
2022/01/28 01:43:21;;;;;;;30.42;2.95;;;;;;;;;;4959036;28;20035;-67
2022/01/28 01:45:59;;;;;;;24.02;3.67;;;;;;;;;;4961474;28;20094;-67
2022/01/28 01:54:09;;;;;;;21.55;2.78;;;;;;;;;;4962740;28;20345;-66
2022/01/28 01:56:35;;;;;;;24.52;3.33;;;;;;;;;;4969950;28;20285;-66
2022/01/28 01:59:02;;;;;;;24.85;2.60;;;;;;;;;;4962994;28;20046;-66
2022/01/28 02:01:28;;;;;;;17.73;2.80;;;;;;;;;;4961139;28;20054;-66
2022/01/28 02:03:54;;;;;;;31.75;4.88;;;;;;;;;;4968836;28;20460;-66
2022/01/28 02:06:21;;;;;;;32.90;5.13;;;;;;;;;;4965330;28;20476;-65
2022/01/28 02:08:47;;;;;;;22.65;3.17;;;;;;;;;;4953321;28;20042;-65
2022/01/28 02:11:13;;;;;;;27.85;3.35;;;;;;;;;;4966082;28;20039;-66
2022/01/28 02:13:40;;;;;;;28.90;3.08;;;;;;;;;;4953476;28;20046;-66
2022/01/28 02:16:07;;;;;;;19.40;3.72;;;;;;;;;;4963092;28;20031;-66
2022/01/28 02:18:33;;;;;;;29.42;3.92;;;;;;;;;;4967749;28;20078;-66
2022/01/28 02:21:11;;;;;;;25.77;3.25;;;;;;;;;;4960422;28;20122;-67
2022/01/28 02:23:38;;;;;;;19.13;2.28;;;;;;;;;;4954071;28;20035;-65
2022/01/28 02:26:05;;;;;;;32.60;3.05;;;;;;;;;;4959181;28;20106;-65
2022/01/28 02:28:36;;;;;;;30.00;3.42;;;;;;;;;;4957186;28;20031;-65
2022/01/28 02:31:03;;;;;;;18.02;2.67;;;;;;;;;;4961911;28;20499;-65
2022/01/28 02:33:29;;;;;;;21.85;2.88;;;;;;;;;;4960620;28;20031;-66
2022/01/28 02:35:56;;;;;;;24.90;2.88;;;;;;;;;;4956479;28;20038;-65
2022/01/28 02:38:23;;;;;;;19.80;2.90;;;;;;;;;;4953150;28;20046;-66
2022/01/28 02:40:56;;;;;;;23.77;2.63;;;;;;;;;;4961064;28;20094;-66
2022/01/28 02:43:43;;;;;;;24.13;2.92;;;;;;;;;;4961597;28;20054;-66
2022/01/28 02:46:17;;;;;;;26.65;3.10;;;;;;;;;;4958955;28;20031;-67
2022/01/28 02:48:54;;;;;;;21.98;3.25;;;;;;;;;;4961071;28;20034;-66
2022/01/28 02:51:22;;;;;;;28.40;3.17;;;;;;;;;;4957636;28;20035;-64
2022/01/28 02:53:58;;;;;;;23.95;3.63;;;;;;;;;;4971750;28;20031;-66
2022/01/28 02:58:57;;;;;;;25.75;2.92;;;;;;;;;;4963184;28;20125;-66
2022/01/28 03:01:24;;;;;;;23.27;4.13;;;;;;;;;;4960337;28;20627;-67
2022/01/28 03:03:50;;;;;;;22.67;3.20;;;;;;;;;;4961255;28;20097;-67
2022/01/28 03:06:18;;;;;;;27.05;3.03;;;;;;;;;;4955367;28;20034;-66
2022/01/28 03:08:51;;;;;;;20.20;4.38;;;;;;;;;;4952907;28;20515;-66
2022/01/28 03:16:22;;;;;;;23.43;3.23;;;;;;;;;;4960802;28;20035;-66
2022/01/28 03:23:56;;;;;;;28.13;3.38;;;;;;;;;;4960149;28;20304;-66
2022/01/28 03:26:28;;;;;;;26.50;3.40;;;;;;;;;;4958391;28;20103;-67
2022/01/28 03:28:54;;;;;;;17.85;2.70;;;;;;;;;;4959640;28;20042;-66
2022/01/28 03:31:20;;;;;;;20.73;2.65;;;;;;;;;;4961630;28;20081;-65
2022/01/28 03:33:46;;;;;;;28.95;3.65;;;;;;;;;;4954961;28;20042;-66
2022/01/28 03:36:13;;;;;;;24.67;3.83;;;;;;;;;;4955139;28;20027;-66
2022/01/28 03:38:40;;;;;;;38.08;5.20;;;;;;;;;;4956923;28;20027;-66
2022/01/28 03:41:12;;;;;;;18.00;2.40;;;;;;;;;;4956379;28;20054;-66
2022/01/28 03:43:38;;;;;;;24.55;3.22;;;;;;;;;;4959098;28;20031;-66
2022/01/28 03:46:04;;;;;;;17.58;2.97;;;;;;;;;;4955463;28;20035;-67
2022/01/28 03:48:30;;;;;;;25.63;3.22;;;;;;;;;;4961020;28;20032;-66
2022/01/28 03:50:56;;;;;;;24.83;2.67;;;;;;;;;;4959135;28;20082;-65
2022/01/28 03:53:22;;;;;;;28.05;2.85;;;;;;;;;;4960053;28;20493;-66
2022/01/28 03:55:51;;;;;;;24.88;3.30;;;;;;;;;;4968692;28;20065;-66
2022/01/28 03:58:17;;;;;;;34.08;2.70;;;;;;;;;;4959012;28;20037;-66
2022/01/28 04:00:43;;;;;;;31.85;3.17;;;;;;;;;;4972523;28;20106;-66
2022/01/28 04:03:37;;;;;;;32.03;3.60;;;;;;;;;;4960687;28;20031;-66
2022/01/28 04:13:55;;;;;;;;;;;;;;;;;;4955552;28;20032;-67
2022/01/28 04:17:19;;;;;;;30.05;4.32;;;;;;;;;;4957839;28;19941;-66
2022/01/28 04:19:19;;;;;;;24.02;4.25;;;;;;;;;;4972163;28;20519;-66
2022/01/28 04:21:46;;;;;;;25.40;2.97;;;;;;;;;;4961275;28;20117;-66
2022/01/28 04:24:12;;;;;;;28.95;3.88;;;;;;;;;;4963247;28;20177;-66
2022/01/28 04:26:38;;;;;;;30.65;3.67;;;;;;;;;;4960234;28;20086;-66
2022/01/28 04:29:04;;;;;;;26.95;3.88;;;;;;;;;;4958869;28;20031;-65
2022/01/28 04:31:30;;;;;;;20.00;3.33;;;;;;;;;;4958724;28;20031;-66
2022/01/28 04:34:00;;;;;;;24.00;3.40;;;;;;;;;;4961702;28;20046;-66
2022/01/28 04:36:29;;;;;;;24.52;2.83;;;;;;;;;;4958935;28;20039;-66
2022/01/28 04:39:04;;;;;;;22.40;2.70;;;;;;;;;;4969540;28;20030;-68
2022/01/28 04:44:36;;;;;;;23.67;2.50;;;;;;;;;;4962918;28;20035;-66
2022/01/28 04:47:53;;;;;;;25.60;2.92;;;;;;;;;;4972214;28;20035;-66
2022/01/28 04:50:17;;;;;;;26.48;2.85;;;;;;;;;;4965750;28;20059;-66
2022/01/28 04:55:40;;;;;;;31.30;2.88;;;;;;;;;;4969123;28;20035;-66
2022/01/28 04:58:21;;;;;;;34.60;3.08;;;;;;;;;;4955009;28;20035;-66
2022/01/28 05:01:01;;;;;;;21.02;2.60;;;;;;;;;;4962293;28;20085;-66
2022/01/28 05:06:39;;;;;;;34.03;3.80;;;;;;;;;;4961327;28;20453;-66
2022/01/28 05:14:27;;;;;;;15.23;2.80;;;;;;;;;;4954901;28;20031;-66
2022/01/28 05:23:05;;;;;;;22.60;2.70;;;;;;;;;;4955850;28;20041;-66
2022/01/28 05:25:45;;;;;;;27.05;3.40;;;;;;;;;;4957114;28;20062;-65
2022/01/28 05:28:04;;;;;;;29.10;4.15;;;;;;;;;;4963374;28;20497;-65
2022/01/28 05:30:30;;;;;;;29.23;3.03;;;;;;;;;;4964066;28;20045;-68
2022/01/28 05:32:56;;;;;;;26.95;3.47;;;;;;;;;;4962065;28;20401;-65
2022/01/28 05:35:22;;;;;;;23.80;3.78;;;;;;;;;;4958875;28;20038;-66
2022/01/28 05:37:48;;;;;;;24.27;3.47;;;;;;;;;;4978994;28;20035;-66
2022/01/28 05:40:14;;;;;;;24.45;2.65;;;;;;;;;;4956718;28;20020;-65
2022/01/28 05:42:40;;;;;;;33.17;3.10;;;;;;;;;;4958184;28;20035;-66
2022/01/28 05:45:07;;;;;;;24.05;2.92;;;;;;;;;;4961201;28;20477;-65
2022/01/28 05:47:35;;;;;;;23.13;3.10;;;;;;;;;;4964560;28;20022;-66
2022/01/28 05:50:02;;;;;;;23.67;3.35;;;;;;;;;;4959038;28;20038;-66
2022/01/28 05:52:28;;;;;;;23.90;3.10;;;;;;;;;;4955727;28;20035;-67
2022/01/28 05:54:54;;;;;;;29.05;3.60;;;;;;;;;;4961982;28;20039;-66
2022/01/28 05:57:20;;;;;;;22.35;3.45;;;;;;;;;;4961074;28;20105;-66
2022/01/28 05:59:46;;;;;;;24.60;3.15;;;;;;;;;;4962077;28;20043;-66
2022/01/28 06:02:12;;;;;;;20.25;3.20;;;;;;;;;;4964535;28;20054;-66
2022/01/28 06:04:39;;;;;;;15.55;2.58;;;;;;;;;;4956902;28;20045;-67
2022/01/28 06:07:05;;;;;;;25.33;2.60;;;;;;;;;;4958993;28;20039;-66
2022/01/28 06:09:31;;;;;;;55.63;4.65;;;;;;;;;;4962325;28;20041;-66
2022/01/28 06:11:57;;;;;;;32.85;3.45;;;;;;;;;;4956883;28;20035;-67
2022/01/28 06:14:23;;;;;;;26.90;3.55;;;;;;;;;;4964643;28;20031;-67
2022/01/28 06:16:49;;;;;;;18.60;2.65;;;;;;;;;;4989021;28;20042;-67
2022/01/28 06:19:15;;;;;;;30.83;3.72;;;;;;;;;;4960285;28;20032;-66
2022/01/28 06:21:41;;;;;;;20.63;2.55;;;;;;;;;;4955713;28;20043;-67
2022/01/28 06:24:07;;;;;;;24.60;2.78;;;;;;;;;;4959155;28;20054;-65
2022/01/28 06:26:33;;;;;;;19.15;2.20;;;;;;;;;;4956196;28;20581;-66
2022/01/28 06:28:59;;;;;;;25.48;3.50;;;;;;;;;;4957082;28;20106;-66
2022/01/28 06:31:25;;;;;;;25.50;2.63;;;;;;;;;;4957709;28;20050;-67
2022/01/28 06:33:51;;;;;;;22.48;3.35;;;;;;;;;;4958077;28;20114;-66
2022/01/28 06:36:19;;;;;;;18.08;3.65;;;;;;;;;;4973661;28;20034;-66
2022/01/28 06:38:46;;;;;;;17.60;2.55;;;;;;;;;;4963748;28;20034;-66
2022/01/28 06:41:12;;;;;;;32.28;3.83;;;;;;;;;;4958667;28;20066;-66
2022/01/28 06:43:38;;;;;;;24.40;2.42;;;;;;;;;;4973731;28;20035;-66
2022/01/28 06:46:04;;;;;;;30.25;4.15;;;;;;;;;;4957770;28;20117;-66
2022/01/28 06:48:30;;;;;;;29.95;4.88;;;;;;;;;;4971891;28;20840;-66
2022/01/28 06:50:56;;;;;;;18.50;3.05;;;;;;;;;;4961345;28;20786;-66
2022/01/28 06:53:22;;;;;;;25.50;3.65;;;;;;;;;;4957749;28;20027;-66
2022/01/28 06:55:48;;;;;;;22.73;2.30;;;;;;;;;;4961175;28;20046;-66
2022/01/28 06:58:15;;;;;;;23.83;4.35;;;;;;;;;;4959299;28;20066;-66
2022/01/28 07:00:41;;;;;;;20.08;2.65;;;;;;;;;;4973941;28;20110;-66
2022/01/28 07:03:08;;;;;;;21.15;3.63;;;;;;;;;;4961966;28;20437;-67
2022/01/28 07:05:34;;;;;;;23.75;3.28;;;;;;;;;;4953557;28;20082;-67
2022/01/28 07:08:00;;;;;;;24.17;2.80;;;;;;;;;;4952968;28;20038;-66
2022/01/28 07:10:26;;;;;;;25.48;2.78;;;;;;;;;;4967458;28;20035;-66
2022/01/28 07:12:56;;;;;;;39.70;6.22;;;;;;;;;;4962125;28;20030;-66
2022/01/28 07:15:25;;;;;;;28.90;2.75;;;;;;;;;;4952975;28;20050;-66
2022/01/28 07:18:02;;;;;;;23.98;4.18;;;;;;;;;;4965593;28;20031;-66
2022/01/28 07:20:31;;;;;;;28.52;4.32;;;;;;;;;;4956273;28;20062;-66
2022/01/28 07:22:58;;;;;;;16.88;2.70;;;;;;;;;;4955758;28;20057;-66
2022/01/28 07:25:24;;;;;;;25.17;3.40;;;;;;;;;;4965832;28;20031;-66
2022/01/28 07:27:50;;;;;;;18.33;3.00;;;;;;;;;;4961546;28;20122;-67
2022/01/28 07:30:16;;;;;;;21.70;3.25;;;;;;;;;;4962180;28;20543;-66
2022/01/28 07:32:42;;;;;;;20.10;2.25;;;;;;;;;;4955684;28;20023;-65
2022/01/28 07:35:09;;;;;;;22.08;2.95;;;;;;;;;;4962365;28;20042;-66
2022/01/28 07:37:35;;;;;;;24.52;2.67;;;;;;;;;;4965847;28;20039;-65
2022/01/28 07:40:04;;;;;;;29.27;3.45;;;;;;;;;;4960597;28;20039;-65
2022/01/28 07:42:35;;;;;;;26.25;2.88;;;;;;;;;;4969488;28;20472;-66
2022/01/28 07:45:01;;;;;;;27.40;4.95;;;;;;;;;;4965970;28;20101;-66
2022/01/28 07:47:27;;;;;;;29.55;2.95;;;;;;;;;;4964430;28;20035;-66
2022/01/28 07:49:53;;;;;;;27.02;3.58;;;;;;;;;;4960249;28;20562;-66
2022/01/28 07:52:19;;;;;;;31.65;4.38;;;;;;;;;;4956548;28;20031;-66
2022/01/28 07:54:49;;;;;;;27.48;2.85;;;;;;;;;;4956630;28;20030;-66
2022/01/28 07:57:15;;;;;;;29.30;3.10;;;;;;;;;;4965599;28;20034;-66
2022/01/28 07:59:41;;;;;;;22.60;3.05;;;;;;;;;;4959682;28;20032;-68
2022/01/28 08:02:08;;;;;;;20.95;2.88;;;;;;;;;;4962924;28;20508;-67
2022/01/28 08:04:34;;;;;;;21.58;3.28;;;;;;;;;;4958473;28;20113;-65
2022/01/28 08:07:00;;;;;;;25.83;2.90;;;;;;;;;;4953910;28;20117;-66
2022/01/28 08:09:26;;;;;;;24.90;3.10;;;;;;;;;;4963410;28;20035;-66
2022/01/28 08:11:52;;;;;;;37.45;3.38;;;;;;;;;;4954569;28;20396;-66
2022/01/28 08:14:18;;;;;;;27.17;2.63;;;;;;;;;;4959625;28;20041;-66
2022/01/28 08:16:44;;;;;;;20.00;3.47;;;;;;;;;;4958256;28;20031;-66
2022/01/28 08:19:10;;;;;;;29.88;3.25;;;;;;;;;;4952080;28;20038;-66
2022/01/28 08:21:36;;;;;;;27.23;2.95;;;;;;;;;;4955541;28;20110;-67
2022/01/28 08:24:02;;;;;;;22.08;3.28;;;;;;;;;;4961422;28;20162;-68
2022/01/28 08:26:28;;;;;;;18.90;3.78;;;;;;;;;;4956385;28;20110;-68
2022/01/28 08:28:54;;;;;;;24.35;3.30;;;;;;;;;;4959209;28;20039;-68
2022/01/28 08:31:20;;;;;;;29.83;2.97;;;;;;;;;;4955715;28;20051;-68
2022/01/28 08:33:46;;;;;;;23.92;2.78;;;;;;;;;;4955056;28;20035;-68
2022/01/28 08:36:12;;;;;;;19.63;3.30;;;;;;;;;;4962274;28;20046;-67
2022/01/28 08:38:46;;;;;;;34.50;4.72;;;;;;;;;;4963393;28;20126;-68
2022/01/28 08:41:15;;;;;;;23.98;3.78;;;;;;;;;;4961175;28;20043;-67
2022/01/28 08:43:41;;;;;;;26.52;3.60;;;;;;;;;;4975276;28;20118;-67
2022/01/28 08:46:07;;;;;;;24.33;3.53;;;;;;;;;;4962113;28;20035;-67
2022/01/28 08:48:33;;;;;;;25.58;4.55;;;;;;;;;;4978482;28;20382;-67
2022/01/28 08:50:59;;;;;;;29.13;5.80;;;;;;;;;;4970383;28;20034;-67
2022/01/28 08:53:26;;;;;;;25.52;7.05;;;;;;;;;;4957504;28;20066;-67
2022/01/28 08:55:52;;;;;;;34.80;7.90;;;;;;;;;;4962551;28;20031;-68
2022/01/28 08:58:18;;;;;;;31.92;5.43;;;;;;;;;;4956397;28;20082;-68
2022/01/28 09:00:47;;;;;;;25.88;5.53;;;;;;;;;;4961295;28;20034;-68
2022/01/28 09:03:14;;;;;;;27.67;3.80;;;;;;;;;;4957305;28;20504;-67
2022/01/28 09:05:40;;;;;;;30.05;3.20;;;;;;;;;;4957672;28;20059;-68
2022/01/28 09:08:08;;;;;;;17.42;3.45;;;;;;;;;;4957829;28;20536;-68
2022/01/28 09:10:37;;;;;;;26.10;4.28;;;;;;;;;;4959903;28;20043;-67
2022/01/28 09:15:35;;;;;;;26.77;3.30;;;;;;;;;;4961246;28;20505;-67
2022/01/28 09:18:02;;;;;;;28.13;4.18;;;;;;;;;;4956200;28;20022;-68
2022/01/28 09:20:29;;;;;;;27.55;4.72;;;;;;;;;;4960414;28;20110;-67
2022/01/28 09:22:55;;;;;;;26.67;3.75;;;;;;;;;;4955603;28;20110;-68
2022/01/28 09:25:21;;;;;;;31.08;3.88;;;;;;;;;;4959878;28;20078;-68
2022/01/28 09:27:47;;;;;;;27.60;3.35;;;;;;;;;;4959007;28;20027;-68
2022/01/28 09:30:13;;;;;;;26.08;4.80;;;;;;;;;;4978811;28;20396;-67
2022/01/28 09:32:39;;;;;;;21.80;3.20;;;;;;;;;;4978121;28;20046;-67
2022/01/28 09:35:05;;;;;;;32.28;3.10;;;;;;;;;;4959889;28;20038;-68
2022/01/28 09:37:31;;;;;;;33.67;4.85;;;;;;;;;;4959757;28;20047;-69
2022/01/28 09:39:57;;;;;;;27.02;4.65;;;;;;;;;;4957034;28;20500;-68
2022/01/28 09:42:28;;;;;;;26.92;3.47;;;;;;;;;;4955043;28;20783;-68
2022/01/28 09:44:55;;;;;;;27.10;3.22;;;;;;;;;;4961294;28;20050;-67
2022/01/28 09:47:21;;;;;;;35.58;4.25;;;;;;;;;;4959304;28;20090;-67
2022/01/28 09:49:48;;;;;;;17.67;2.83;;;;;;;;;;4970263;28;20031;-69
2022/01/28 09:52:14;;;;;;;22.20;3.00;;;;;;;;;;4958485;28;20053;-72
2022/01/28 09:54:47;;;;;;;29.50;3.55;;;;;;;;;;4958305;28;20105;-72
2022/01/28 09:57:17;;;;;;;26.02;3.80;;;;;;;;;;4956921;28;20062;-73
2022/01/28 09:59:43;;;;;;;27.60;4.22;;;;;;;;;;4959839;28;20484;-73
2022/01/28 10:02:09;;;;;;;29.25;4.38;;;;;;;;;;4959280;28;20267;-72
2022/01/28 10:04:35;;;;;;;21.85;3.42;;;;;;;;;;4962392;28;20129;-73
2022/01/28 10:07:11;;;;;;;22.50;3.03;;;;;;;;;;4958130;28;20062;-72
2022/01/28 10:09:38;;;;;;;19.40;3.78;;;;;;;;;;4955951;28;20121;-72
2022/01/28 10:12:26;;;;;;;25.70;3.05;;;;;;;;;;4960350;28;20053;-72
2022/01/28 10:15:00;;;;;;;24.27;3.67;;;;;;;;;;4959724;28;20035;-71
2022/01/28 10:17:26;;;;;;;19.85;2.70;;;;;;;;;;4964660;28;20027;-72
2022/01/28 10:19:52;;;;;;;24.10;3.28;;;;;;;;;;4962100;28;20118;-73
2022/01/28 10:22:19;;;;;;;12.98;3.17;;;;;;;;;;4966236;28;20448;-72
2022/01/28 10:24:45;;;;;;;34.35;4.55;;;;;;;;;;4962088;28;20023;-71
2022/01/28 10:27:11;;;;;;;20.67;3.67;;;;;;;;;;4961743;28;20062;-73
2022/01/28 10:29:38;;;;;;;24.65;3.03;;;;;;;;;;4956773;28;20094;-72
2022/01/28 10:32:11;;;;;;;24.90;3.55;;;;;;;;;;4962135;28;20038;-72
2022/01/28 10:34:39;;;;;;;28.98;3.42;;;;;;;;;;4958944;28;20030;-73
2022/01/28 10:37:14;;;;;;;28.05;3.70;;;;;;;;;;4962566;28;20062;-73
2022/01/28 10:39:40;;;;;;;21.27;3.72;;;;;;;;;;4955840;28;20031;-72
2022/01/28 10:42:07;;;;;;;24.45;3.47;;;;;;;;;;4956760;28;20031;-72
2022/01/28 10:44:33;;;;;;;25.88;3.55;;;;;;;;;;4955863;28;20031;-71
2022/01/28 10:47:00;;;;;;;23.80;3.15;;;;;;;;;;4956118;28;20466;-71
2022/01/28 10:49:33;;;;;;;17.13;3.30;;;;;;;;;;4960793;28;20094;-72
2022/01/28 10:52:05;;;;;;;24.48;3.20;;;;;;;;;;4965744;28;20489;-71
2022/01/28 10:54:31;;;;;;;24.58;2.90;;;;;;;;;;4964976;28;20027;-71
2022/01/28 10:56:58;;;;;;;22.15;2.83;;;;;;;;;;4962672;28;20575;-73
2022/01/28 10:59:28;;;;;;;26.35;3.03;;;;;;;;;;4959137;28;20473;-71
2022/01/28 11:01:54;;;;;;;21.92;2.92;;;;;;;;;;4971216;28;20038;-72
2022/01/28 11:04:21;;;;;;;19.60;3.30;;;;;;;;;;4971591;28;20050;-73
2022/01/28 11:06:48;;;;;;;18.80;2.58;;;;;;;;;;4958397;28;20059;-71
2022/01/28 11:09:15;;;;;;;21.17;2.45;;;;;;;;;;4970713;28;20045;-71
2022/01/28 11:11:41;;;;;;;20.67;3.00;;;;;;;;;;4963687;28;20038;-72
2022/01/28 11:14:08;;;;;;;19.25;3.17;;;;;;;;;;4964024;28;20035;-72
2022/01/28 11:16:34;;;;;;;20.35;2.63;;;;;;;;;;4956249;28;20493;-72
2022/01/28 11:19:00;;;;;;;15.10;2.33;;;;;;;;;;4962748;28;20062;-72
2022/01/28 11:21:35;;;;;;;27.35;2.50;;;;;;;;;;4956638;28;20026;-71
2022/01/28 11:24:11;;;;;;;17.73;2.70;;;;;;;;;;4969876;28;20509;-71
2022/01/28 11:26:40;;;;;;;13.27;2.60;;;;;;;;;;4961600;28;20151;-71
2022/01/28 11:29:13;;;;;;;17.52;3.45;;;;;;;;;;4953149;28;20039;-71
2022/01/28 11:31:42;;;;;;;28.27;3.28;;;;;;;;;;4961863;28;20038;-72
2022/01/28 11:34:16;;;;;;;20.40;2.70;;;;;;;;;;4972061;28;20487;-73
2022/01/28 11:36:42;;;;;;;17.05;2.65;;;;;;;;;;4963303;28;20055;-73
2022/01/28 11:39:20;;;;;;;19.35;2.58;;;;;;;;;;4964832;28;20042;-71
2022/01/28 11:42:04;;;;;;;20.60;2.60;;;;;;;;;;4960050;28;20031;-72
2022/01/28 11:44:48;;;;;;;17.88;3.13;;;;;;;;;;4958542;28;20027;-72
2022/01/28 11:47:23;;;;;;;22.83;2.22;;;;;;;;;;4961590;28;20035;-72
2022/01/28 11:49:53;;;;;;;18.40;2.40;;;;;;;;;;4966068;28;20027;-72
2022/01/28 11:52:24;;;;;;;21.17;3.63;;;;;;;;;;4968664;28;20456;-73
2022/01/28 11:54:50;;;;;;;18.50;2.17;;;;;;;;;;4965694;28;20027;-70
2022/01/28 11:57:17;;;;;;;17.35;2.47;;;;;;;;;;4965009;28;20519;-71
2022/01/28 11:59:43;;;;;;;13.77;2.05;;;;;;;;;;4972535;28;20050;-70
2022/01/28 12:02:11;;;;;;;21.08;2.75;;;;;;;;;;4973856;28;20039;-73
2022/01/28 12:04:39;;;;;;;18.10;2.88;;;;;;;;;;4971090;28;20031;-73
2022/01/28 12:07:07;;;;;;;15.75;2.50;;;;;;;;;;4971166;28;20552;-71
2022/01/28 12:09:34;;;;;;;15.65;2.53;;;;;;;;;;4973385;28;20030;-71
2022/01/28 12:12:00;;;;;;;20.02;3.60;;;;;;;;;;4975492;28;20050;-71
2022/01/28 12:14:45;;;;;;;23.85;3.10;;;;;;;;;;4978270;28;20456;-71
2022/01/28 12:17:33;;;;;;;30.15;2.35;;;;;;;;;;4978084;28;20090;-72
2022/01/28 12:20:15;;;;;;;16.25;2.65;;;;;;;;;;4975558;28;20031;-71
2022/01/28 12:23:00;;;;;;;15.90;2.33;;;;;;;;;;4976465;28;20126;-72
2022/01/28 12:25:35;;;;;;;11.32;2.45;;;;;;;;;;4968631;28;20031;-73
2022/01/28 12:28:18;;;;;;;34.35;4.22;;;;;;;;;;4982176;28;20031;-73
2022/01/28 12:30:59;;;;;;;19.80;2.22;;;;;;;;;;4981981;28;20041;-72
2022/01/28 12:33:26;;;;;;;19.02;2.60;;;;;;;;;;4977546;28;20098;-72
2022/01/28 12:35:55;;;;;;;17.17;1.95;;;;;;;;;;4969326;28;20051;-73
2022/01/28 12:38:23;;;;;;;14.18;2.28;;;;;;;;;;4975501;28;20053;-71
2022/01/28 12:40:52;;;;;;;18.25;2.47;;;;;;;;;;4975850;28;20039;-71
2022/01/28 12:43:22;;;;;;;17.35;2.92;;;;;;;;;;4977726;28;20030;-72
2022/01/28 12:46:00;;;;;;;19.00;3.85;;;;;;;;;;4964977;28;20121;-73
2022/01/28 12:48:27;;;;;;;15.82;2.97;;;;;;;;;;4974034;28;20504;-73
2022/01/28 12:50:54;;;;;;;18.88;2.88;;;;;;;;;;4975333;28;20443;-71
2022/01/28 12:53:48;;;;;;;11.20;2.00;;;;;;;;;;4975667;28;20085;-72
2022/01/28 12:56:18;;;;;;;15.90;3.13;;;;;;;;;;4966376;28;20039;-72
2022/01/28 12:58:48;;;;;;;14.02;2.38;;;;;;;;;;4970168;28;20341;-71
2022/01/28 13:01:16;;;;;;;18.00;2.53;;;;;;;;;;4965665;28;20088;-73
2022/01/28 13:04:04;;;;;;;15.10;2.45;;;;;;;;;;4968978;28;20042;-73
2022/01/28 13:09:01;;;;;;;11.80;2.72;;;;;;;;;;4963856;28;20045;-70
2022/01/28 13:11:28;;;;;;;16.55;3.92;;;;;;;;;;4962179;28;20063;-72
2022/01/28 13:13:56;;;;;;;15.35;3.30;;;;;;;;;;4958499;28;20050;-73
2022/01/28 13:16:49;;;;;;;14.32;3.47;;;;;;;;;;4959125;28;20031;-72
2022/01/28 13:19:15;;;;;;;14.18;3.67;;;;;;;;;;4959517;28;20039;-71
2022/01/28 13:21:43;;;;;;;16.50;3.10;;;;;;;;;;4963882;28;20102;-72
2022/01/28 13:24:35;;;;;;;15.02;2.55;;;;;;;;;;4958356;28;20037;-71
2022/01/28 13:27:02;;;;;;;11.75;2.63;;;;;;;;;;4968055;28;20089;-71
2022/01/28 13:29:38;;;;;;;12.80;2.50;;;;;;;;;;4970657;28;20734;-71
2022/01/28 13:32:09;;;;;;;18.20;3.65;;;;;;;;;;4971850;28;20309;-71
2022/01/28 13:34:48;;;;;;;15.40;2.97;;;;;;;;;;4962480;28;20481;-73
2022/01/28 13:37:34;;;;;;;20.73;4.53;;;;;;;;;;4970042;28;20035;-73
2022/01/28 13:40:01;;;;;;;15.20;3.30;;;;;;;;;;4962388;28;20015;-71
2022/01/28 13:42:27;;;;;;;20.70;3.33;;;;;;;;;;4966755;28;20034;-71
2022/01/28 13:44:53;;;;;;;18.25;3.40;;;;;;;;;;4973304;28;20816;-72
2022/01/28 13:47:19;;;;;;;11.88;2.47;;;;;;;;;;4963161;28;20035;-71
2022/01/28 13:49:46;;;;;;;19.60;3.63;;;;;;;;;;4961787;28;20035;-72
2022/01/28 13:52:13;;;;;;;20.10;3.53;;;;;;;;;;4966309;28;20035;-72
2022/01/28 13:54:39;;;;;;;20.70;3.92;;;;;;;;;;4963971;28;20035;-72
2022/01/28 13:57:07;;;;;;;15.35;3.95;;;;;;;;;;4965695;28;20130;-73
2022/01/28 13:59:34;;;;;;;14.48;3.60;;;;;;;;;;4961358;28;20038;-70
2022/01/28 14:02:00;;;;;;;19.23;2.70;;;;;;;;;;4960334;28;20027;-73
2022/01/28 14:04:33;;;;;;;25.00;2.95;;;;;;;;;;4964876;28;20037;-72
2022/01/28 14:07:18;;;;;;;24.27;3.08;;;;;;;;;;4967199;28;20052;-73
2022/01/28 14:09:56;;;;;;;19.17;3.72;;;;;;;;;;4963508;28;20456;-73
2022/01/28 14:12:24;;;;;;;16.13;3.05;;;;;;;;;;4963486;28;20031;-72
2022/01/28 14:14:52;;;;;;;23.02;3.63;;;;;;;;;;4961803;28;20039;-71
2022/01/28 14:17:18;;;;;;;16.35;3.22;;;;;;;;;;4965805;28;20138;-71
2022/01/28 14:19:44;;;;;;;14.85;3.30;;;;;;;;;;4966264;28;20031;-72
2022/01/28 14:22:12;;;;;;;15.13;3.65;;;;;;;;;;4961167;28;20050;-73
2022/01/28 14:24:39;;;;;;;22.55;3.75;;;;;;;;;;4965452;28;20030;-72
2022/01/28 14:32:07;;;;;;;20.45;4.22;;;;;;;;;;4960627;28;20039;-72
2022/01/28 14:34:33;;;;;;;16.77;4.32;;;;;;;;;;4959082;28;20018;-70
2022/01/28 14:37:00;;;;;;;19.17;4.53;;;;;;;;;;4959999;28;20023;-73
2022/01/28 14:39:26;;;;;;;13.07;2.70;;;;;;;;;;4964492;28;20400;-73
2022/01/28 14:41:55;;;;;;;12.70;2.67;;;;;;;;;;4959254;28;20117;-72
2022/01/28 14:44:21;;;;;;;15.27;3.70;;;;;;;;;;4958008;28;20098;-71
2022/01/28 14:46:47;;;;;;;12.98;3.25;;;;;;;;;;4963681;28;20035;-72
2022/01/28 14:49:13;;;;;;;15.38;2.92;;;;;;;;;;4962244;28;20031;-72
2022/01/28 14:51:41;;;;;;;16.27;3.15;;;;;;;;;;4964321;28;20089;-72
2022/01/28 14:54:07;;;;;;;16.30;3.00;;;;;;;;;;4961520;28;20027;-71
2022/01/28 14:56:33;;;;;;;15.32;4.40;;;;;;;;;;4960078;28;20031;-72
2022/01/28 14:59:00;;;;;;;16.48;4.00;;;;;;;;;;4970655;28;20031;-71
2022/01/28 15:01:27;;;;;;;16.02;3.88;;;;;;;;;;4967749;28;20030;-72
2022/01/28 15:03:54;;;;;;;21.48;4.05;;;;;;;;;;4961041;28;20066;-71
2022/01/28 15:06:22;;;;;;;17.92;4.47;;;;;;;;;;4957992;28;20066;-72
2022/01/28 15:08:49;;;;;;;14.93;4.05;;;;;;;;;;4971325;28;20590;-70
2022/01/28 15:11:23;;;;;;;14.80;5.43;;;;;;;;;;4975404;28;20042;-70
2022/01/28 15:13:50;;;;;;;11.65;4.80;;;;;;;;;;4966908;28;20038;-71
2022/01/28 15:16:17;;;;;;;24.35;6.22;;;;;;;;;;4963158;28;20397;-71
2022/01/28 15:18:43;;;;;;;23.45;5.97;;;;;;;;;;4962607;28;20118;-71
2022/01/28 15:21:10;;;;;;;19.52;5.43;;;;;;;;;;4970409;28;20107;-71
2022/01/28 15:23:36;;;;;;;17.67;4.85;;;;;;;;;;4965965;28;20041;-71
2022/01/28 15:26:02;;;;;;;18.48;3.90;;;;;;;;;;4958635;28;20090;-71
2022/01/28 15:28:36;;;;;;;22.75;4.60;;;;;;;;;;4961246;28;20035;-73
2022/01/28 15:36:31;;;;;;;24.60;10.70;;;;;;;;;;4979693;28;20123;-70
2022/01/28 15:38:57;;;;;;;22.20;6.75;;;;;;;;;;4966420;28;20058;-72
2022/01/28 15:41:23;;;;;;;17.00;4.15;;;;;;;;;;4974496;28;20581;-71
2022/01/28 15:43:49;;;;;;;13.57;4.18;;;;;;;;;;4977840;28;20057;-71
2022/01/28 15:46:15;;;;;;;20.83;3.92;;;;;;;;;;4966584;28;20047;-72
2022/01/28 15:48:41;;;;;;;17.30;4.38;;;;;;;;;;4967094;28;20147;-70
2022/01/28 15:51:07;;;;;;;15.60;4.00;;;;;;;;;;4996997;28;20083;-72
2022/01/28 15:53:34;;;;;;;13.85;3.88;;;;;;;;;;5013988;28;20102;-72
2022/01/28 15:56:01;;;;;;;11.38;4.30;;;;;;;;;;4984132;28;20041;-72
2022/01/28 15:58:27;;;;;;;16.40;4.25;;;;;;;;;;4982900;28;20495;-72
2022/01/28 16:00:53;;;;;;;12.10;4.38;;;;;;;;;;4977452;28;20035;-71
2022/01/28 16:03:19;;;;;;;14.98;3.60;;;;;;;;;;4974337;28;20035;-71
2022/01/28 16:05:45;;;;;;;18.73;4.50;;;;;;;;;;4976480;28;20074;-71